createdAt,value
2023-12-30T00:00:18.181Z,82.54
2023-12-30T00:04:22.745Z,83.35
2023-12-30T00:08:24.397Z,83.64
2023-12-30T00:12:26.011Z,83.74
2023-12-30T00:16:28.332Z,83.26
2023-12-30T00:20:31.452Z,82.71
2023-12-30T00:24:33.015Z,82.57
2023-12-30T00:28:34.763Z,82.07
2023-12-30T00:32:36.464Z,82.13
2023-12-30T00:36:43.968Z,81.72
2023-12-30T00:40:45.870Z,80.88
2023-12-30T00:44:51.460Z,81.34
2023-12-30T00:49:07.701Z,81.71
2023-12-30T00:53:27.584Z,82.18
2023-12-30T00:57:32.394Z,81.50
2023-12-30T01:01:34.268Z,81.20
2023-12-30T01:05:51.444Z,81.49
2023-12-30T01:09:55.704Z,81.85
2023-12-30T01:13:58.243Z,81.58
2023-12-30T01:18:00.025Z,81.01
2023-12-30T01:22:03.749Z,80.70
2023-12-30T01:26:06.697Z,80.89
2023-12-30T01:30:08.637Z,80.88
2023-12-30T01:34:10.375Z,80.63
2023-12-30T01:38:11.970Z,80.39
2023-12-30T01:42:14.972Z,80.43
2023-12-30T01:46:17.085Z,79.56
2023-12-30T01:50:19.137Z,79.46
2023-12-30T01:54:22.244Z,79.09
2023-12-30T01:58:25.448Z,78.97
2023-12-30T02:02:27.886Z,78.53
2023-12-30T02:06:29.695Z,78.49
2023-12-30T02:10:31.346Z,78.71
2023-12-30T02:14:34.322Z,78.98
2023-12-30T02:18:35.955Z,79.34
2023-12-30T02:22:41.910Z,79.04
2023-12-30T02:26:43.518Z,79.13
2023-12-30T02:30:45.092Z,78.67
2023-12-30T02:34:46.855Z,79.62
2023-12-30T02:38:49.737Z,79.25
2023-12-30T02:42:51.476Z,78.96
2023-12-30T02:46:53.225Z,79.19
2023-12-30T02:50:54.738Z,78.50
2023-12-30T02:54:57.657Z,78.94
2023-12-30T02:59:00.655Z,79.11
2023-12-30T03:03:03.150Z,79.40
2023-12-30T03:07:04.912Z,78.36
2023-12-30T03:11:09.220Z,79.15
2023-12-30T03:15:11.192Z,79.34
2023-12-30T03:19:13.006Z,79.15
2023-12-30T03:23:14.667Z,79.42
2023-12-30T03:27:17.676Z,79.79
2023-12-30T03:31:23.622Z,79.04
2023-12-30T03:35:25.285Z,79.90
2023-12-30T03:39:27.825Z,80.86
2023-12-30T03:43:30.746Z,80.57
2023-12-30T03:47:32.432Z,79.74
2023-12-30T03:51:33.986Z,79.44
2023-12-30T03:55:35.585Z,79.29
2023-12-30T03:59:40.340Z,80.56
2023-12-30T04:03:41.982Z,80.02
2023-12-30T04:07:43.611Z,80.08
2023-12-30T04:11:45.342Z,81.17
2023-12-30T04:15:48.243Z,80.82
2023-12-30T04:19:50.294Z,82.00
2023-12-30T04:23:51.915Z,81.92
2023-12-30T04:27:53.511Z,81.53
2023-12-30T04:31:56.704Z,82.66
2023-12-30T04:35:58.270Z,82.29
2023-12-30T04:39:59.817Z,83.18
2023-12-30T04:44:01.393Z,83.10
2023-12-30T04:48:05.461Z,83.91
2023-12-30T04:52:07.284Z,84.04
2023-12-30T04:56:16.063Z,83.45
2023-12-30T05:00:21.886Z,83.92
2023-12-30T05:04:26.689Z,83.54
2023-12-30T05:08:28.304Z,83.50
2023-12-30T05:12:29.898Z,83.46
2023-12-30T05:16:32.317Z,83.07
2023-12-30T05:20:35.316Z,83.14
2023-12-30T05:24:37.373Z,83.09
2023-12-30T05:28:38.856Z,83.66
2023-12-30T05:32:40.546Z,82.71
2023-12-30T05:36:44.652Z,83.90
2023-12-30T05:40:46.199Z,84.36
2023-12-30T05:44:48.807Z,83.92
2023-12-30T05:48:50.890Z,82.98
2023-12-30T05:52:54.116Z,83.51
2023-12-30T05:56:55.793Z,83.08
2023-12-30T06:00:59.752Z,82.73
2023-12-30T06:05:01.419Z,82.57
2023-12-30T06:09:04.616Z,83.43
2023-12-30T06:13:07.513Z,82.58
2023-12-30T06:17:09.066Z,81.58
2023-12-30T06:21:11.038Z,82.25
2023-12-30T06:25:14.093Z,82.11
2023-12-30T06:29:15.743Z,82.20
2023-12-30T06:33:17.811Z,82.27
2023-12-30T06:37:20.591Z,83.19
2023-12-30T06:41:24.912Z,83.43
2023-12-30T06:45:26.933Z,82.85
2023-12-30T06:49:30.161Z,83.45
2023-12-30T06:53:32.081Z,83.77
2023-12-30T06:57:34.967Z,84.24
2023-12-30T07:01:37.995Z,83.87
2023-12-30T07:05:39.736Z,83.67
2023-12-30T07:09:41.315Z,84.17
2023-12-30T07:13:44.266Z,83.89
2023-12-30T07:17:46.152Z,83.64
2023-12-30T07:21:47.977Z,83.33
2023-12-30T07:25:49.646Z,82.47
2023-12-30T07:29:55.094Z,81.93
2023-12-30T07:33:57.020Z,81.96
2023-12-30T07:37:58.922Z,82.27
2023-12-30T07:42:00.578Z,82.29
2023-12-30T07:46:03.962Z,82.00
2023-12-30T07:50:07.563Z,82.02
2023-12-30T07:54:09.199Z,82.10
2023-12-30T07:58:10.992Z,81.40
2023-12-30T08:02:15.841Z,81.48
2023-12-30T08:06:17.600Z,82.80
2023-12-30T08:10:21.580Z,83.17
2023-12-30T08:14:23.189Z,83.15
2023-12-30T08:18:26.220Z,83.44
2023-12-30T08:22:28.151Z,83.80
2023-12-30T08:26:29.990Z,83.48
2023-12-30T08:30:31.597Z,83.16
2023-12-30T08:34:34.676Z,83.82
2023-12-30T08:38:36.560Z,82.12
2023-12-30T08:42:39.785Z,82.21
2023-12-30T08:46:41.577Z,82.01
2023-12-30T08:50:44.543Z,82.68
2023-12-30T08:54:46.826Z,82.11
2023-12-30T08:58:49.146Z,81.15
2023-12-30T09:02:50.755Z,81.57
2023-12-30T09:06:53.881Z,80.62
2023-12-30T09:10:55.662Z,80.02
2023-12-30T09:14:57.290Z,79.08
2023-12-30T09:18:59.227Z,78.55
2023-12-30T09:23:10.827Z,79.22
2023-12-30T09:27:13.313Z,77.76
2023-12-30T09:31:16.112Z,78.66
2023-12-30T09:35:17.721Z,77.82
2023-12-30T09:39:27.529Z,76.55
2023-12-30T09:43:29.598Z,76.88
2023-12-30T09:47:38.034Z,75.58
2023-12-30T09:51:40.137Z,74.52
2023-12-30T09:55:44.064Z,75.89
2023-12-30T09:59:48.216Z,75.44
2023-12-30T10:03:50.246Z,74.54
2023-12-30T10:07:52.982Z,74.52
2023-12-30T10:11:56.193Z,74.21
2023-12-30T10:15:59.933Z,73.41
2023-12-30T10:20:01.728Z,75.03
2023-12-30T10:24:11.091Z,74.51
2023-12-30T10:28:14.202Z,73.81
2023-12-30T10:32:21.724Z,75.03
2023-12-30T10:36:23.651Z,75.15
2023-12-30T10:40:25.680Z,73.89
2023-12-30T10:44:28.626Z,70.80
2023-12-30T10:48:31.777Z,71.06
2023-12-30T10:52:36.814Z,69.42
2023-12-30T10:56:45.406Z,68.03
2023-12-30T11:00:53.057Z,68.39
2023-12-30T11:04:56.386Z,68.56
2023-12-30T11:08:59.687Z,69.38
2023-12-30T11:13:01.992Z,67.10
2023-12-30T11:17:05.321Z,65.95
2023-12-30T11:21:07.354Z,66.08
2023-12-30T11:25:09.688Z,64.58
2023-12-30T11:29:12.559Z,64.52
2023-12-30T11:33:15.760Z,63.50
2023-12-30T11:37:19.370Z,66.28
2023-12-30T11:41:20.942Z,65.00
2023-12-30T11:45:22.528Z,65.66
2023-12-30T11:49:26.738Z,64.70
2023-12-30T11:53:33.937Z,64.99
2023-12-30T11:57:37.191Z,62.15
2023-12-30T12:01:39.303Z,62.40
2023-12-30T12:05:42.455Z,62.47
2023-12-30T12:09:44.322Z,60.04
2023-12-30T12:13:46.029Z,59.75
2023-12-30T12:17:50.527Z,62.56
2023-12-30T12:22:00.034Z,60.71
2023-12-30T12:26:01.832Z,61.21
2023-12-30T12:30:04.067Z,60.63
2023-12-30T12:34:20.618Z,60.53
2023-12-30T12:38:23.642Z,61.24
2023-12-30T12:42:30.711Z,60.40
2023-12-30T12:46:33.205Z,60.45
2023-12-30T12:50:35.112Z,65.14
2023-12-30T12:54:38.054Z,62.47
2023-12-30T12:58:40.000Z,63.92
2023-12-30T13:02:41.756Z,66.58
2023-12-30T13:06:43.564Z,67.97
2023-12-30T13:10:46.515Z,65.55
2023-12-30T13:14:48.538Z,66.19
2023-12-30T13:18:50.291Z,64.84
2023-12-30T13:22:51.878Z,64.72
2023-12-30T13:26:55.031Z,65.33
2023-12-30T13:30:57.380Z,65.59
2023-12-30T13:34:59.489Z,65.42
2023-12-30T13:39:01.246Z,66.25
2023-12-30T13:43:04.476Z,67.01
2023-12-30T13:47:06.259Z,66.55
2023-12-30T13:51:08.144Z,66.89
2023-12-30T13:55:09.919Z,67.00
2023-12-30T13:59:13.373Z,67.82
2023-12-30T14:03:15.280Z,67.29
2023-12-30T14:07:16.998Z,66.29
2023-12-30T14:11:18.925Z,67.08
2023-12-30T14:15:21.812Z,67.74
2023-12-30T14:19:23.620Z,68.54
2023-12-30T14:23:26.306Z,67.35
2023-12-30T14:27:28.085Z,66.42
2023-12-30T14:31:31.049Z,65.25
2023-12-30T14:35:32.601Z,66.88
2023-12-30T14:39:34.354Z,66.22
2023-12-30T14:43:36.990Z,66.06
2023-12-30T14:47:40.970Z,67.99
2023-12-30T14:51:42.618Z,68.50
2023-12-30T14:55:44.226Z,69.24
2023-12-30T14:59:45.901Z,69.22
2023-12-30T15:03:50.316Z,69.25
2023-12-30T15:07:55.764Z,70.44
2023-12-30T15:11:59.653Z,70.17
2023-12-30T15:16:01.369Z,70.78
2023-12-30T15:20:05.241Z,71.23
2023-12-30T15:24:07.057Z,70.75
2023-12-30T15:28:09.427Z,70.07
2023-12-30T15:32:12.607Z,70.89
2023-12-30T15:36:15.668Z,71.96
2023-12-30T15:40:17.544Z,71.97
2023-12-30T15:44:19.475Z,73.15
2023-12-30T15:48:21.843Z,73.11
2023-12-30T15:52:25.640Z,73.14
2023-12-30T15:56:29.646Z,74.04
2023-12-30T16:00:31.360Z,74.95
2023-12-30T16:04:33.070Z,76.36
2023-12-30T16:08:37.465Z,75.08
2023-12-30T16:12:39.059Z,75.39
2023-12-30T16:16:41.098Z,74.91
2023-12-30T16:20:42.787Z,75.75
2023-12-30T16:24:45.784Z,76.50
2023-12-30T16:28:47.759Z,77.22
2023-12-30T16:32:49.629Z,77.23
2023-12-30T16:36:51.355Z,77.67
2023-12-30T16:40:54.464Z,77.20
2023-12-30T16:44:56.196Z,77.74
2023-12-30T16:48:57.751Z,77.47
2023-12-30T16:52:59.397Z,77.79
2023-12-30T16:57:02.688Z,78.91
2023-12-30T17:01:04.333Z,79.37
2023-12-30T17:05:06.767Z,79.13
2023-12-30T17:09:08.429Z,78.46
2023-12-30T17:13:11.468Z,79.73
2023-12-30T17:17:14.089Z,79.06
2023-12-30T17:21:15.849Z,80.53
2023-12-30T17:25:17.551Z,80.57
2023-12-30T17:29:21.001Z,80.53
2023-12-30T17:33:22.715Z,80.85
2023-12-30T17:37:24.513Z,80.83
2023-12-30T17:41:26.807Z,81.16
2023-12-30T17:45:29.688Z,81.47
2023-12-30T17:49:31.307Z,81.18
2023-12-30T17:53:33.073Z,80.67
2023-12-30T17:57:34.901Z,81.70
2023-12-30T18:01:37.877Z,81.69
2023-12-30T18:05:39.713Z,82.07
2023-12-30T18:09:42.122Z,82.37
2023-12-30T18:13:45.473Z,83.21
2023-12-30T18:17:49.311Z,83.28
2023-12-30T18:21:51.949Z,82.97
2023-12-30T18:25:53.681Z,83.75
2023-12-30T18:29:56.507Z,83.40
2023-12-30T18:33:59.454Z,82.95
2023-12-30T18:38:01.034Z,83.68
2023-12-30T18:42:03.880Z,82.85
2023-12-30T18:46:05.883Z,82.20
2023-12-30T18:50:09.352Z,81.88
2023-12-30T18:54:10.961Z,82.19
2023-12-30T18:58:14.113Z,81.31
2023-12-30T19:02:16.946Z,81.79
2023-12-30T19:06:22.619Z,80.83
2023-12-30T19:10:24.504Z,80.93
2023-12-30T19:14:26.256Z,80.87
2023-12-30T19:18:27.970Z,81.30
2023-12-30T19:22:32.276Z,81.49
2023-12-30T19:26:34.185Z,81.82
2023-12-30T19:30:36.049Z,82.00
2023-12-30T19:34:37.725Z,80.98
2023-12-30T19:38:41.230Z,81.94
2023-12-30T19:42:43.966Z,82.49
2023-12-30T19:46:45.609Z,82.90
2023-12-30T19:50:47.446Z,82.55
2023-12-30T19:54:50.264Z,82.30
2023-12-30T19:58:52.038Z,82.16
2023-12-30T20:02:53.614Z,82.12
2023-12-30T20:06:55.485Z,82.77
2023-12-30T20:10:58.703Z,82.07
2023-12-30T20:15:00.354Z,82.35
2023-12-30T20:19:02.020Z,81.75
2023-12-30T20:23:03.959Z,81.74
2023-12-30T20:27:07.404Z,82.55
2023-12-30T20:31:09.721Z,83.31
2023-12-30T20:35:11.819Z,83.11
2023-12-30T20:39:17.057Z,82.51
2023-12-30T20:43:20.513Z,82.78
2023-12-30T20:47:22.080Z,82.98
2023-12-30T20:51:25.057Z,81.89
2023-12-30T20:55:26.982Z,81.96
2023-12-30T20:59:29.925Z,82.25
2023-12-30T21:03:32.136Z,81.84
2023-12-30T21:07:34.108Z,82.25
2023-12-30T21:11:36.164Z,82.74
2023-12-30T21:15:39.754Z,83.30
2023-12-30T21:19:41.440Z,83.04
2023-12-30T21:23:43.257Z,83.17
2023-12-30T21:27:44.879Z,83.63
2023-12-30T21:31:47.952Z,83.12
2023-12-30T21:35:49.699Z,82.85
2023-12-30T21:39:51.275Z,83.23
2023-12-30T21:43:54.113Z,82.82
2023-12-30T21:47:57.135Z,83.78
2023-12-30T21:51:58.819Z,83.03
2023-12-30T21:56:00.451Z,83.10
2023-12-30T22:00:02.156Z,84.15
2023-12-30T22:04:05.958Z,84.01
2023-12-30T22:08:07.764Z,84.44
2023-12-30T22:12:09.322Z,84.57
2023-12-30T22:16:11.938Z,84.71
2023-12-30T22:20:14.949Z,84.67
2023-12-30T22:24:16.573Z,85.05
2023-12-30T22:28:18.215Z,86.19
2023-12-30T22:32:21.031Z,86.30
2023-12-30T22:36:28.026Z,85.47
2023-12-30T22:40:29.892Z,84.89
2023-12-30T22:44:31.524Z,85.10
2023-12-30T22:48:33.170Z,85.20
2023-12-30T22:52:36.769Z,85.05
2023-12-30T22:56:38.348Z,85.48
2023-12-30T23:00:40.164Z,85.88
2023-12-30T23:04:41.899Z,86.16
2023-12-30T23:08:44.821Z,85.56
2023-12-30T23:12:46.490Z,85.33
2023-12-30T23:16:48.445Z,84.75
2023-12-30T23:20:50.160Z,84.37
2023-12-30T23:24:53.116Z,84.33
2023-12-30T23:28:55.912Z,83.91
2023-12-30T23:32:57.487Z,83.48
2023-12-30T23:36:59.308Z,83.28
2023-12-30T23:41:02.490Z,82.99
2023-12-30T23:45:05.072Z,83.02
2023-12-30T23:49:06.826Z,83.46
2023-12-30T23:53:08.419Z,83.27
2023-12-30T23:57:11.394Z,83.26
